createdAt,value
2019-05-07T00:01:17.673Z,13.03
2019-05-07T00:03:46.502Z,14.77
2019-05-07T00:06:15.702Z,13.97
2019-05-07T00:08:45.073Z,17.40
2019-05-07T00:11:14.111Z,13.60
2019-05-07T00:13:44.516Z,12.03
2019-05-07T00:16:13.591Z,14.73
2019-05-07T00:18:43.023Z,16.90
2019-05-07T00:21:12.635Z,15.63
2019-05-07T00:23:43.208Z,15.83
2019-05-07T00:26:13.237Z,15.30
2019-05-07T00:28:43.190Z,15.43
2019-05-07T00:31:12.494Z,15.07
2019-05-07T00:33:43.204Z,13.00
2019-05-07T00:36:18.933Z,14.23
2019-05-07T00:38:52.140Z,13.80
2019-05-07T00:41:34.751Z,13.60
2019-05-07T00:44:04.368Z,14.10
2019-05-07T00:46:33.474Z,13.93
2019-05-07T00:49:02.480Z,15.43
2019-05-07T00:51:35.375Z,12.73
2019-05-07T00:54:05.602Z,11.43
2019-05-07T00:56:34.619Z,13.37
2019-05-07T00:59:03.581Z,14.63
2019-05-07T01:01:33.563Z,14.10
2019-05-07T01:04:02.762Z,11.87
2019-05-07T01:06:42.353Z,13.50
2019-05-07T01:09:12.297Z,13.67
2019-05-07T01:11:42.938Z,13.77
2019-05-07T01:14:12.431Z,16.07
2019-05-07T01:16:42.202Z,16.37
2019-05-07T01:19:12.576Z,14.40
2019-05-07T01:21:43.230Z,17.30
2019-05-07T01:24:12.674Z,16.37
2019-05-07T01:26:42.559Z,16.37
2019-05-07T01:29:12.860Z,16.00
2019-05-07T01:31:52.530Z,18.70
2019-05-07T01:34:27.985Z,13.57
2019-05-07T01:36:56.997Z,13.43
2019-05-07T01:39:25.901Z,14.83
2019-05-07T01:41:54.976Z,13.97
2019-05-07T01:44:24.243Z,12.57
2019-05-07T01:46:53.075Z,16.73
2019-05-07T01:49:24.064Z,15.27
2019-05-07T01:51:53.064Z,13.10
2019-05-07T01:54:23.840Z,13.37
2019-05-07T01:56:52.963Z,13.33
2019-05-07T01:59:22.453Z,13.00
2019-05-07T02:01:53.319Z,12.07
2019-05-07T02:04:47.459Z,13.33
2019-05-07T02:07:23.280Z,12.83
2019-05-07T02:09:57.316Z,13.93
2019-05-07T02:12:28.965Z,12.40
2019-05-07T02:14:57.922Z,13.00
2019-05-07T02:17:26.996Z,13.97
2019-05-07T02:19:56.057Z,12.33
2019-05-07T02:22:25.127Z,11.33
2019-05-07T02:24:54.537Z,12.37
2019-05-07T02:27:23.418Z,13.93
2019-05-07T02:29:52.816Z,14.47
2019-05-07T02:32:23.991Z,13.80
2019-05-07T02:34:54.446Z,15.10
2019-05-07T02:37:37.633Z,12.37
2019-05-07T02:40:14.118Z,13.17
2019-05-07T02:42:44.418Z,16.57
2019-05-07T02:45:39.445Z,16.83
2019-05-07T02:48:08.831Z,15.13
2019-05-07T02:50:44.745Z,15.60
2019-05-07T02:53:23.071Z,14.77
2019-05-07T02:55:54.316Z,15.73
2019-05-07T02:58:24.163Z,14.47
2019-05-07T03:00:53.515Z,16.67
2019-05-07T03:03:24.648Z,14.03
2019-05-07T03:05:53.850Z,17.00
2019-05-07T03:08:27.143Z,16.53
2019-05-07T03:10:53.994Z,17.07
2019-05-07T03:13:23.952Z,17.63
2019-05-07T03:15:53.990Z,14.97
2019-05-07T03:18:23.925Z,17.90
2019-05-07T03:20:57.913Z,17.53
2019-05-07T03:23:34.024Z,16.20
2019-05-07T03:26:09.077Z,17.07
2019-05-07T03:29:00.040Z,15.13
2019-05-07T03:31:48.094Z,18.07
2019-05-07T03:34:27.949Z,15.93
2019-05-07T03:36:57.714Z,16.33
2019-05-07T03:39:27.205Z,17.43
2019-05-07T03:41:56.178Z,16.43
2019-05-07T03:44:33.792Z,19.70
2019-05-07T03:47:16.501Z,14.90
2019-05-07T03:49:45.585Z,17.07
2019-05-07T03:52:14.564Z,16.43
2019-05-07T03:54:43.606Z,14.87
2019-05-07T03:57:15.624Z,15.50
2019-05-07T03:59:43.522Z,14.83
2019-05-07T04:02:14.182Z,20.07
2019-05-07T04:04:43.573Z,16.10
2019-05-07T04:07:13.824Z,14.63
2019-05-07T04:09:43.742Z,18.47
2019-05-07T04:12:13.437Z,16.17
2019-05-07T04:14:43.175Z,16.10
2019-05-07T04:17:16.851Z,18.83
2019-05-07T04:19:44.051Z,18.47
2019-05-07T04:22:13.725Z,17.93
2019-05-07T04:24:54.623Z,17.47
2019-05-07T04:27:28.778Z,21.50
2019-05-07T04:29:57.736Z,17.57
2019-05-07T04:32:33.446Z,19.60
2019-05-07T04:35:09.509Z,24.97
2019-05-07T04:37:38.397Z,21.27
2019-05-07T04:40:07.475Z,20.10
2019-05-07T04:42:36.375Z,18.37
2019-05-07T04:45:05.904Z,18.77
2019-05-07T04:47:42.907Z,18.20
2019-05-07T04:50:06.669Z,19.37
2019-05-07T04:52:37.163Z,20.70
2019-05-07T04:55:07.208Z,19.40
2019-05-07T04:57:36.344Z,18.83
2019-05-07T05:00:07.488Z,19.37
2019-05-07T05:02:54.293Z,17.37
2019-05-07T05:05:24.084Z,19.40
2019-05-07T05:07:53.540Z,21.90
2019-05-07T05:10:23.381Z,17.93
2019-05-07T05:12:53.685Z,19.47
2019-05-07T05:15:22.995Z,17.77
2019-05-07T05:17:54.031Z,17.97
2019-05-07T05:20:29.796Z,20.27
2019-05-07T05:23:12.238Z,17.30
2019-05-07T05:25:43.110Z,16.27
2019-05-07T05:28:13.159Z,18.80
2019-05-07T05:30:45.599Z,16.77
2019-05-07T05:33:14.770Z,18.10
2019-05-07T05:35:44.123Z,20.40
2019-05-07T05:38:13.243Z,21.13
2019-05-07T05:40:42.830Z,19.93
2019-05-07T05:43:36.355Z,20.97
2019-05-07T05:46:06.283Z,18.13
2019-05-07T05:48:35.644Z,22.43
2019-05-07T05:51:23.775Z,19.10
2019-05-07T05:53:57.946Z,15.97
2019-05-07T05:56:42.812Z,16.33
2019-05-07T05:59:47.335Z,18.07
2019-05-07T06:02:16.042Z,19.17
2019-05-07T06:04:58.769Z,17.27
2019-05-07T06:07:38.363Z,18.40
2019-05-07T06:10:16.411Z,15.50
2019-05-07T06:12:52.288Z,17.60
2019-05-07T06:15:43.264Z,13.33
2019-05-07T06:18:32.724Z,14.97
2019-05-07T06:21:12.577Z,14.40
2019-05-07T06:23:46.167Z,17.30
2019-05-07T06:26:15.198Z,13.93
2019-05-07T06:28:44.615Z,17.63
2019-05-07T06:31:13.982Z,17.80
2019-05-07T06:33:43.097Z,15.77
2019-05-07T06:36:12.606Z,16.37
2019-05-07T06:38:50.613Z,15.90
2019-05-07T06:41:29.678Z,16.27
2019-05-07T06:44:02.168Z,14.43
2019-05-07T06:46:32.298Z,13.77
2019-05-07T06:49:02.190Z,17.17
2019-05-07T06:51:32.862Z,18.67
2019-05-07T06:54:02.796Z,15.83
2019-05-07T06:56:32.541Z,15.43
2019-05-07T06:59:09.635Z,16.67
2019-05-07T07:01:59.222Z,17.10
2019-05-07T07:04:47.549Z,19.13
2019-05-07T07:07:27.434Z,18.30
2019-05-07T07:10:25.837Z,17.53
2019-05-07T07:12:55.047Z,17.77
2019-05-07T07:15:24.143Z,14.03
2019-05-07T07:17:53.228Z,16.30
2019-05-07T07:20:22.346Z,17.27
2019-05-07T07:22:52.077Z,17.77
2019-05-07T07:25:22.865Z,18.23
2019-05-07T07:27:52.300Z,14.60
2019-05-07T07:30:28.633Z,18.80
2019-05-07T07:32:59.140Z,19.50
2019-05-07T07:35:28.161Z,18.87
2019-05-07T07:37:57.196Z,18.03
2019-05-07T07:40:42.194Z,16.40
2019-05-07T07:43:12.866Z,21.17
2019-05-07T07:45:42.129Z,16.70
2019-05-07T07:48:13.151Z,17.50
2019-05-07T07:50:42.162Z,14.60
2019-05-07T07:53:13.010Z,14.50
2019-05-07T07:58:31.479Z,15.67
2019-05-07T08:01:12.200Z,18.47
2019-05-07T08:03:41.855Z,19.43
2019-05-07T08:06:11.937Z,19.93
2019-05-07T08:08:42.423Z,19.30
2019-05-07T08:11:12.657Z,19.40
2019-05-07T08:13:42.548Z,20.43
2019-05-07T08:16:12.935Z,15.83
2019-05-07T08:18:43.595Z,21.20
2019-05-07T08:21:12.910Z,18.13
2019-05-07T08:23:42.433Z,18.90
2019-05-07T08:26:12.718Z,18.10
2019-05-07T08:28:42.017Z,21.63
2019-05-07T08:31:32.985Z,17.27
2019-05-07T08:34:09.299Z,19.70
2019-05-07T08:36:38.226Z,24.37
2019-05-07T08:39:07.423Z,21.93
2019-05-07T08:41:36.587Z,22.00
2019-05-07T08:44:12.913Z,21.07
2019-05-07T08:46:47.472Z,18.70
2019-05-07T08:49:16.880Z,23.93
2019-05-07T08:51:51.852Z,24.90
2019-05-07T08:54:22.602Z,31.60
2019-05-07T08:56:52.754Z,24.47
2019-05-07T08:59:22.372Z,21.83
2019-05-07T09:01:52.022Z,25.23
2019-05-07T09:04:43.202Z,26.03
2019-05-07T09:07:13.159Z,22.30
2019-05-07T09:09:42.844Z,22.77
2019-05-07T09:12:12.535Z,23.50
2019-05-07T09:14:42.545Z,21.82
2019-05-07T09:17:12.820Z,22.80
2019-05-07T09:19:50.687Z,22.00
2019-05-07T09:22:12.964Z,21.27
2019-05-07T09:24:42.566Z,21.77
2019-05-07T09:27:22.312Z,20.37
2019-05-07T09:30:12.830Z,17.92
2019-05-07T09:32:54.807Z,19.73
2019-05-07T09:35:28.077Z,21.63
2019-05-07T09:37:57.115Z,22.63
2019-05-07T09:40:26.133Z,21.00
2019-05-07T09:42:55.767Z,18.37
2019-05-07T09:45:24.899Z,20.93
2019-05-07T09:47:53.966Z,20.97
2019-05-07T09:50:22.992Z,22.20
2019-05-07T09:52:52.039Z,19.77
2019-05-07T09:55:23.176Z,21.85
2019-05-07T09:57:52.725Z,22.00
2019-05-07T10:00:22.998Z,18.50
2019-05-07T10:02:52.854Z,19.17
2019-05-07T10:05:22.245Z,19.70
2019-05-07T10:07:52.620Z,19.10
2019-05-07T10:10:22.341Z,20.12
2019-05-07T10:13:01.909Z,19.52
2019-05-07T10:15:33.153Z,18.70
2019-05-07T10:18:08.265Z,19.23
2019-05-07T10:20:37.344Z,19.10
2019-05-07T10:23:08.143Z,20.62
2019-05-07T10:25:40.818Z,16.00
2019-05-07T10:28:09.835Z,16.20
2019-05-07T10:30:38.885Z,17.95
2019-05-07T10:33:07.922Z,17.12
2019-05-07T10:35:37.084Z,19.15
2019-05-07T10:38:06.126Z,18.10
2019-05-07T10:40:35.180Z,19.57
2019-05-07T10:43:04.260Z,18.13
2019-05-07T10:45:56.652Z,18.30
2019-05-07T10:48:32.776Z,18.70
2019-05-07T10:51:02.172Z,24.27
2019-05-07T10:53:32.018Z,19.73
2019-05-07T10:56:02.697Z,19.67
2019-05-07T10:58:32.232Z,15.47
2019-05-07T11:01:02.906Z,15.57
2019-05-07T11:03:32.489Z,14.73
2019-05-07T11:06:01.705Z,15.07
2019-05-07T11:08:32.678Z,15.90
2019-05-07T11:11:02.872Z,13.67
2019-05-07T11:13:32.728Z,17.83
2019-05-07T11:16:08.804Z,16.73
2019-05-07T11:18:42.633Z,19.27
2019-05-07T11:21:11.953Z,19.23
2019-05-07T11:23:41.898Z,20.53
2019-05-07T11:26:11.772Z,20.60
2019-05-07T11:28:40.908Z,22.53
2019-05-07T11:31:12.044Z,18.70
2019-05-07T11:33:41.641Z,18.07
2019-05-07T11:36:10.914Z,20.37
2019-05-07T11:38:42.238Z,20.47
2019-05-07T11:41:12.644Z,20.00
2019-05-07T11:44:05.512Z,22.27
2019-05-07T11:46:44.476Z,17.70
2019-05-07T11:49:27.027Z,15.93
2019-05-07T11:52:01.058Z,15.47
2019-05-07T11:54:31.865Z,13.50
2019-05-07T11:57:02.680Z,16.10
2019-05-07T11:59:32.587Z,15.47
2019-05-07T12:02:04.356Z,14.70
2019-05-07T12:04:33.472Z,14.75
2019-05-07T12:07:02.845Z,17.10
2019-05-07T12:09:33.281Z,14.00
2019-05-07T12:12:02.590Z,16.17
2019-05-07T12:14:34.710Z,11.97
2019-05-07T12:17:02.783Z,12.82
2019-05-07T12:19:33.041Z,11.60
2019-05-07T12:22:03.048Z,8.80
2019-05-07T12:24:32.850Z,11.00
2019-05-07T12:27:02.664Z,13.87
2019-05-07T12:29:32.380Z,11.20
2019-05-07T12:32:16.495Z,12.30
2019-05-07T12:34:48.652Z,13.30
2019-05-07T12:37:17.723Z,9.93
2019-05-07T12:39:46.857Z,10.85
2019-05-07T12:42:15.924Z,9.88
2019-05-07T12:44:45.087Z,9.93
2019-05-07T12:47:15.352Z,14.55
2019-05-07T12:49:44.651Z,10.40
2019-05-07T12:52:42.494Z,9.00
2019-05-07T12:55:17.833Z,12.23
2019-05-07T12:57:46.801Z,11.80
2019-05-07T13:00:34.410Z,11.27
2019-05-07T13:03:12.792Z,9.53
2019-05-07T13:05:42.007Z,9.60
2019-05-07T13:08:12.320Z,8.77
2019-05-07T13:10:42.886Z,8.70
2019-05-07T13:13:12.364Z,9.53
2019-05-07T13:15:43.261Z,11.33
2019-05-07T13:18:12.739Z,9.87
2019-05-07T13:20:42.120Z,10.30
2019-05-07T13:23:11.966Z,10.07
2019-05-07T13:25:42.904Z,12.47
2019-05-07T13:28:12.063Z,9.93
2019-05-07T13:30:43.604Z,10.47
2019-05-07T13:33:12.958Z,8.03
2019-05-07T13:35:44.392Z,12.23
2019-05-07T13:38:32.313Z,28.90
2019-05-07T13:41:23.872Z,11.73
2019-05-07T13:44:04.947Z,11.00
2019-05-07T13:46:34.589Z,10.37
2019-05-07T13:49:03.736Z,8.70
2019-05-07T13:51:33.789Z,9.77
2019-05-07T13:54:03.461Z,8.43
2019-05-07T13:56:32.730Z,9.77
2019-05-07T13:59:04.655Z,10.40
2019-05-07T14:01:51.673Z,11.57
2019-05-07T14:04:22.283Z,9.23
2019-05-07T14:06:52.961Z,8.93
2019-05-07T14:09:24.418Z,8.73
2019-05-07T14:11:53.693Z,9.37
2019-05-07T14:14:22.877Z,8.67
2019-05-07T14:16:53.045Z,13.10
2019-05-07T14:19:22.668Z,8.23
2019-05-07T14:21:52.705Z,9.23
2019-05-07T14:24:22.673Z,8.83
2019-05-07T14:26:52.917Z,10.97
2019-05-07T14:29:24.570Z,15.40
2019-05-07T14:32:17.968Z,9.17
2019-05-07T14:35:04.718Z,8.60
2019-05-07T14:37:37.317Z,7.77
2019-05-07T14:40:07.469Z,8.17
2019-05-07T14:42:47.548Z,11.93
2019-05-07T14:45:16.569Z,7.50
2019-05-07T14:47:45.605Z,9.17
2019-05-07T14:50:15.727Z,10.43
2019-05-07T14:52:44.793Z,9.80
2019-05-07T14:55:13.911Z,8.83
2019-05-07T14:57:42.981Z,8.50
2019-05-07T15:00:12.648Z,8.03
2019-05-07T15:02:42.353Z,10.70
2019-05-07T15:05:12.195Z,10.73
2019-05-07T15:07:50.914Z,7.53
2019-05-07T15:10:22.079Z,8.47
2019-05-07T15:12:52.200Z,6.37
2019-05-07T15:15:21.940Z,5.87
2019-05-07T15:18:12.137Z,8.23
2019-05-07T15:20:41.929Z,8.40
2019-05-07T15:23:28.616Z,9.13
2019-05-07T15:25:58.368Z,7.07
2019-05-07T15:28:29.696Z,10.10
2019-05-07T15:31:08.359Z,12.57
2019-05-07T15:33:37.431Z,11.93
2019-05-07T15:36:06.726Z,7.00
2019-05-07T15:38:36.168Z,5.50
2019-05-07T15:41:06.060Z,12.50
2019-05-07T15:43:35.211Z,9.47
2019-05-07T15:46:04.323Z,7.83
2019-05-07T15:48:33.452Z,7.63
2019-05-07T15:51:03.216Z,7.10
2019-05-07T15:53:42.603Z,6.97
2019-05-07T15:56:12.481Z,8.43
2019-05-07T15:58:42.611Z,8.17
2019-05-07T16:01:12.810Z,7.33
2019-05-07T16:03:43.773Z,10.40
2019-05-07T16:06:12.965Z,8.53
2019-05-07T16:08:49.073Z,10.30
2019-05-07T16:11:17.720Z,5.53
2019-05-07T16:13:52.801Z,9.30
2019-05-07T16:16:23.551Z,6.13
2019-05-07T16:19:11.879Z,6.83
2019-05-07T16:21:42.561Z,6.23
2019-05-07T16:24:12.167Z,7.20
2019-05-07T16:26:41.881Z,6.53
2019-05-07T16:29:13.353Z,6.37
2019-05-07T16:31:43.874Z,7.27
2019-05-07T16:34:13.016Z,8.57
2019-05-07T16:36:42.296Z,7.77
2019-05-07T16:39:12.047Z,10.73
2019-05-07T16:41:42.257Z,5.17
2019-05-07T16:44:12.299Z,5.77
2019-05-07T16:46:42.182Z,6.13
2019-05-07T16:49:12.077Z,9.47
2019-05-07T16:51:44.267Z,6.00
2019-05-07T16:54:12.317Z,4.70
2019-05-07T16:57:02.943Z,6.10
2019-05-07T16:59:32.446Z,4.90
2019-05-07T17:02:05.811Z,5.70
2019-05-07T17:04:34.864Z,7.37
2019-05-07T17:07:05.924Z,6.73
2019-05-07T17:09:35.463Z,4.33
2019-05-07T17:12:07.209Z,6.83
2019-05-07T17:14:36.186Z,7.03
2019-05-07T17:17:05.256Z,6.90
2019-05-07T17:19:34.350Z,5.70
2019-05-07T17:22:06.197Z,7.23
2019-05-07T17:24:33.881Z,7.60
2019-05-07T17:27:02.849Z,5.83
2019-05-07T17:29:32.220Z,5.87
2019-05-07T17:32:01.713Z,7.33
2019-05-07T17:34:30.920Z,7.97
2019-05-07T17:37:01.842Z,5.90
2019-05-07T17:39:32.185Z,5.30
2019-05-07T17:42:02.499Z,8.13
2019-05-07T17:44:32.519Z,7.90
2019-05-07T17:47:02.068Z,6.83
2019-05-07T17:49:32.763Z,6.73
2019-05-07T17:52:02.988Z,5.97
2019-05-07T17:54:32.477Z,5.53
2019-05-07T17:57:02.098Z,10.43
2019-05-07T17:59:32.072Z,8.90
2019-05-07T18:02:13.941Z,5.47
2019-05-07T18:04:50.763Z,11.03
2019-05-07T18:07:16.122Z,8.43
2019-05-07T18:09:45.173Z,6.70
2019-05-07T18:12:14.291Z,7.00
2019-05-07T18:14:43.268Z,8.90
2019-05-07T18:17:42.027Z,7.60
2019-05-07T18:20:12.872Z,8.40
2019-05-07T18:22:42.127Z,6.47
2019-05-07T18:25:12.475Z,9.03
2019-05-07T18:27:42.114Z,9.30
2019-05-07T18:30:12.887Z,7.17
2019-05-07T18:32:49.397Z,9.97
2019-05-07T18:35:18.449Z,8.40
2019-05-07T18:37:53.595Z,8.23
2019-05-07T18:40:22.916Z,11.73
2019-05-07T18:42:52.534Z,10.13
2019-05-07T18:45:21.932Z,14.97
2019-05-07T18:47:51.696Z,8.10
2019-05-07T18:50:22.529Z,9.50
2019-05-07T18:52:52.230Z,8.57
2019-05-07T18:55:22.678Z,8.83
2019-05-07T18:57:52.030Z,9.97
2019-05-07T19:00:28.515Z,6.10
2019-05-07T19:02:57.609Z,6.17
2019-05-07T19:05:26.640Z,10.70
2019-05-07T19:08:07.014Z,6.50
2019-05-07T19:10:26.526Z,6.80
2019-05-07T19:12:55.701Z,8.07
2019-05-07T19:15:24.815Z,9.53
2019-05-07T19:17:53.785Z,10.07
2019-05-07T19:20:22.746Z,8.77
2019-05-07T19:22:51.983Z,10.03
2019-05-07T19:25:21.172Z,7.77
2019-05-07T19:27:53.188Z,6.57
2019-05-07T19:30:22.392Z,7.50
2019-05-07T19:32:52.160Z,9.87
2019-05-07T19:35:23.084Z,8.07
2019-05-07T19:37:52.879Z,6.63
2019-05-07T19:40:22.474Z,7.03
2019-05-07T19:42:52.277Z,9.47
2019-05-07T19:45:24.282Z,8.67
2019-05-07T19:47:52.427Z,6.73
2019-05-07T19:50:23.362Z,8.77
2019-05-07T19:52:52.308Z,9.83
2019-05-07T19:55:22.022Z,11.10
2019-05-07T19:57:58.938Z,7.40
2019-05-07T20:00:27.964Z,7.57
2019-05-07T20:02:59.799Z,9.10
2019-05-07T20:05:29.636Z,9.73
2019-05-07T20:08:01.919Z,7.37
2019-05-07T20:10:38.458Z,7.40
2019-05-07T20:13:07.356Z,7.30
2019-05-07T20:15:37.513Z,6.67
2019-05-07T20:18:06.707Z,9.73
2019-05-07T20:20:35.628Z,9.77
2019-05-07T20:23:04.990Z,8.93
2019-05-07T20:25:34.002Z,6.17
2019-05-07T20:28:03.077Z,6.57
2019-05-07T20:30:32.899Z,9.23
2019-05-07T20:33:03.073Z,9.50
2019-05-07T20:35:32.651Z,12.90
2019-05-07T20:38:02.905Z,8.13
2019-05-07T20:40:32.547Z,10.93
2019-05-07T20:43:02.011Z,7.50
2019-05-07T20:45:32.020Z,6.80
2019-05-07T20:48:02.509Z,7.03
2019-05-07T20:50:33.278Z,5.00
2019-05-07T20:53:02.362Z,8.80
2019-05-07T20:55:53.048Z,8.70
2019-05-07T20:58:22.227Z,7.83
2019-05-07T21:00:52.588Z,7.97
2019-05-07T21:03:23.766Z,10.13
2019-05-07T21:05:53.366Z,8.30
2019-05-07T21:08:22.859Z,7.20
2019-05-07T21:10:53.550Z,8.37
2019-05-07T21:13:33.280Z,8.23
2019-05-07T21:15:53.509Z,6.40
2019-05-07T21:18:23.276Z,6.43
2019-05-07T21:20:53.128Z,6.73
2019-05-07T21:23:23.267Z,5.67
2019-05-07T21:25:52.961Z,8.60
2019-05-07T21:28:22.173Z,10.97
2019-05-07T21:30:52.180Z,10.63
2019-05-07T21:33:22.825Z,5.70
2019-05-07T21:35:52.439Z,7.83
2019-05-07T21:38:22.407Z,8.80
2019-05-07T21:40:51.466Z,6.43
2019-05-07T21:43:22.129Z,8.13
2019-05-07T21:45:52.992Z,11.30
2019-05-07T21:48:22.413Z,9.43
2019-05-07T21:50:52.054Z,7.07
2019-05-07T21:53:45.236Z,8.80
2019-05-07T21:56:39.573Z,10.17
2019-05-07T21:59:12.685Z,8.70
2019-05-07T22:01:46.654Z,7.23
2019-05-07T22:04:15.582Z,10.80
2019-05-07T22:06:45.527Z,6.20
2019-05-07T22:09:15.283Z,9.00
2019-05-07T22:11:44.270Z,9.87
2019-05-07T22:14:13.179Z,9.67
2019-05-07T22:16:42.305Z,9.93
2019-05-07T22:19:12.116Z,10.43
2019-05-07T22:21:43.158Z,10.27
2019-05-07T22:24:13.107Z,8.53
2019-05-07T22:26:42.914Z,9.00
2019-05-07T22:29:12.527Z,8.47
2019-05-07T22:31:52.991Z,8.50
2019-05-07T22:34:35.711Z,7.57
2019-05-07T22:37:04.825Z,7.73
2019-05-07T22:39:33.744Z,11.87
2019-05-07T22:42:02.646Z,12.43
2019-05-07T22:44:32.156Z,8.43
2019-05-07T22:47:18.613Z,8.10
2019-05-07T22:49:49.493Z,11.37
2019-05-07T22:52:19.225Z,9.73
2019-05-07T22:54:48.303Z,7.13
2019-05-07T22:57:33.171Z,9.27
2019-05-07T23:00:04.496Z,9.47
2019-05-07T23:02:32.568Z,7.80
2019-05-07T23:05:02.895Z,10.47
2019-05-07T23:07:32.866Z,9.30
2019-05-07T23:10:02.870Z,7.10
2019-05-07T23:12:32.909Z,10.57
2019-05-07T23:15:02.725Z,8.93
2019-05-07T23:17:32.635Z,8.57
2019-05-07T23:20:01.894Z,11.83
2019-05-07T23:22:32.445Z,7.50
2019-05-07T23:25:01.389Z,7.63
2019-05-07T23:27:32.370Z,9.33
2019-05-07T23:30:02.559Z,9.10
2019-05-07T23:32:32.979Z,8.33
2019-05-07T23:35:02.264Z,9.50
2019-05-07T23:37:33.169Z,6.67
2019-05-07T23:40:05.922Z,8.00
2019-05-07T23:42:36.554Z,9.80
2019-05-07T23:45:05.954Z,8.53
2019-05-07T23:47:35.250Z,6.23
2019-05-07T23:50:04.349Z,7.73
2019-05-07T23:52:33.450Z,8.60
2019-05-07T23:55:02.924Z,9.50
2019-05-07T23:57:32.502Z,6.37
